Sudoku Kaponor — FAC8644 — position and weather

sailwx.info

Track history (hours):
 
Tides and Currents Weather Stations Pressure Air Temp Water Temp Dewpoint Dewpoint Depression Visibility Wind Speed Wind Dir Waves Ship Positions

Sudoku Kaponor

Last reported at 2018-Jun-16 14:23 UTC. Time now 2018-Jun-20 15:19 UTC.
Position N 46°09' W 001°10'.

Length 10 m.

Type: Sailing vessel. MMSI: 227357170.

Date/timePositionNaut miles runAvg speedWind from/ knotsBaromVisibWave heightAir tempDewpointWater temp
2018-Jun-16 14:23N 46°09' W 001°10'1 3.2
2018-Jun-16 14:00N 46°08' W 001°11'3 5.5
2018-Jun-16 13:30N 46°10' W 001°15'3 5.7
2018-Jun-16 13:00N 46°12' W 001°17'7 1.4
2018-Jun-16 07:42N 46°07' W 001°25'1 7.2
2018-Jun-16 07:30N 46°07' W 001°23'2 4.8
2018-Jun-16 07:00N 46°06' W 001°20'3 6.1
2018-Jun-16 06:30N 46°06' W 001°16'3 6.6
2018-Jun-16 06:00N 46°08' W 001°12'0 0.3
2018-Jun-16 05:30N 46°08' W 001°12'  
2018-Jun-10 15:12N 46°09' W 001°10'0 1.2
2018-Jun-10 15:00N 46°09' W 001°10'4 4.2
2018-Jun-10 14:00N 46°06' W 001°15'3 4.3
2018-Jun-10 13:25N 46°04' W 001°17'2 0.1
2018-Jun-09 12:58N 46°04' W 001°15'2 5.0
2018-Jun-09 12:30N 46°06' W 001°13'3 5.7
2018-Jun-09 12:00N 46°08' W 001°11'  
Track history (hours):
 
Tides and Currents Weather Stations Pressure Air Temp Water Temp Dewpoint Dewpoint Depression Visibility Wind Speed Wind Dir Waves Ship Positions

Sudoku Kaponor

Last reported at 2018-Jun-16 14:23 UTC. Time now 2018-Jun-20 15:19 UTC.
Position N 46°09' W 001°10'.

Length 10 m.

Type: Sailing vessel. MMSI: 227357170.

Date/timePositionNaut miles runAvg speedWind from/ knotsBaromVisibWave heightAir tempDewpointWater temp
2018-Jun-16 14:23N 46°09' W 001°10'1 3.2
2018-Jun-16 14:00N 46°08' W 001°11'3 5.5
2018-Jun-16 13:30N 46°10' W 001°15'3 5.7
2018-Jun-16 13:00N 46°12' W 001°17'7 1.4
2018-Jun-16 07:42N 46°07' W 001°25'1 7.2
2018-Jun-16 07:30N 46°07' W 001°23'2 4.8
2018-Jun-16 07:00N 46°06' W 001°20'3 6.1
2018-Jun-16 06:30N 46°06' W 001°16'3 6.6
2018-Jun-16 06:00N 46°08' W 001°12'0 0.3
2018-Jun-16 05:30N 46°08' W 001°12'  
2018-Jun-10 15:12N 46°09' W 001°10'0 1.2
2018-Jun-10 15:00N 46°09' W 001°10'4 4.2
2018-Jun-10 14:00N 46°06' W 001°15'3 4.3
2018-Jun-10 13:25N 46°04' W 001°17'2 0.1
2018-Jun-09 12:58N 46°04' W 001°15'2 5.0
2018-Jun-09 12:30N 46°06' W 001°13'3 5.7
2018-Jun-09 12:00N 46°08' W 001°11'  

Dump ship's entire track history